KGJT/GJT METAR and TAF weather

Enter ICAO airport designator
Station Type Date Time Source
KGJT METAR 2019/04/21 21:53 UTC NOAA

KGJT 212153Z 06008KT 10SM CLR 13/07 A2987 RMK AO2 WSHFT 2044 RAE2057 SLP079 P0000 T01330067


Station Type Date Time Source
KGJT Decoded METAR 2019/04/21 21:53 UTC NOAA

GRAND JUNCTION WALKER FIELD, CO, United States (KGJT) 39-08N 108-32W 1452M
Apr 21, 2019 - 05:53 PM EDT / 2019.04.21 2153 UTC
Wind: from the ENE (060 degrees) at 9 MPH (8 KT):0
Visibility: 10 mile(s):0
Sky conditions: clear
Precipitation last hour: A trace
Temperature: 55.9 F (13.3 C)
Dew Point: 44.1 F (6.7 C)
Relative Humidity: 64%
Pressure (altimeter): 29.87 in. Hg (1011 hPa)
ob: KGJT 212153Z 06008KT 10SM CLR 13/07 A2987 RMK AO2 WSHFT 2044 RAE2057 SLP079 P0000 T01330067
cycle: 22

Station Type Date Time Source
KGJT TAF 2019/04/21 20:30 UTC NOAA

TAF
AMD KGJT 212028Z 2120/2218 22012KT P6SM VCTS SCT060CB BKN080 BKN090
TEMPO 2120/2121 VRB25G40KT -TSRA BKN050CB OVC080
FM212200 14008KT P6SM VCSH SCT070 BKN100
FM220400 09007KT P6SM SCT080 BKN200
FM221400 12006KT P6SM FEW080 SCT120

Example: see airport list